Flight Track Log - Related Links

Times and Time Zones

All times are in EST time to prevent confusion due to time zone crossing. See the AFL150 flight status page for this flight to view local times or setup timezone preferences in your user account.

Time Position Orientation Groundspeed Altitude Reporting Facility
EST Latitude Longitude Course Direction KTS MPH feet Rate Location/Type
Mon 04:34:00 AM 56.1148 37.1135 314° West  Level FlightAware Approximate
Mon 04:35:00 AM 56.2038 36.9460 314° West  Level FlightAware Approximate
Mon 04:36:00 AM 56.2926 36.7778 314° West  Level FlightAware Approximate
Mon 04:37:00 AM 56.3812 36.6088 313° West  Level FlightAware Approximate
Mon 04:38:00 AM 56.4696 36.4389 313° West  Level FlightAware Approximate
Mon 04:39:00 AM 56.5577 36.2683 313° West  Level FlightAware Approximate
Mon 04:40:00 AM 56.6456 36.0970 313° West  Level FlightAware Approximate
Mon 04:41:00 AM 56.7332 35.9248 313° West  Level FlightAware Approximate
Mon 04:42:00 AM 56.8206 35.7518 313° West  Level FlightAware Approximate
Mon 04:43:00 AM 56.9078 35.5779 313° West  Level FlightAware Approximate
Mon 04:44:00 AM 56.9947 35.4033 312° West  Level FlightAware Approximate
Mon 04:45:00 AM 57.0814 35.2279 312° West  Level FlightAware Approximate
Mon 04:46:00 AM 57.1678 35.0516 312° West  Level FlightAware Approximate
Mon 04:47:00 AM 57.2540 34.8745 312° West  Level FlightAware Approximate
Mon 04:48:00 AM 57.3399 34.6966 312° West  Level FlightAware Approximate
Mon 04:49:00 AM 57.4256 34.5179 312° West  Level FlightAware Approximate
Mon 04:50:00 AM 57.4982 34.3198 309° West  Level Estimated
Mon 04:51:00 AM 57.5795 34.1334 309° West  Level FlightAware Approximate
Mon 04:52:00 AM 57.6605 33.9460 309° West  Level FlightAware Approximate
Mon 04:53:00 AM 57.7412 33.7579 309° West  Level FlightAware Approximate
Mon 04:54:00 AM 57.8217 33.5689 309° West  Level FlightAware Approximate
Mon 04:55:00 AM 57.9019 33.3791 309° West  Level FlightAware Approximate
Mon 04:56:00 AM 57.9817 33.1884 308° West  Level FlightAware Approximate
Mon 04:57:00 AM 58.0613 32.9969 308° West  Level FlightAware Approximate
Mon 04:58:00 AM 58.1406 32.8045 308° West  Level FlightAware Approximate
Mon 04:59:00 AM 58.2196 32.6112 308° West  Level FlightAware Approximate
Mon 05:00:00 AM 58.2984 32.4171 308° West  Level FlightAware Approximate
Mon 05:01:00 AM 58.3768 32.2222 308° West  Level FlightAware Approximate
Mon 05:02:00 AM 58.4549 32.0263 307° West  Level FlightAware Approximate
Mon 05:03:00 AM 58.5327 31.8296 307° West  Level FlightAware Approximate
Mon 05:04:00 AM 58.6102 31.6321 307° West  Level FlightAware Approximate
Mon 05:05:00 AM 58.6875 31.4336 307° West  Level FlightAware Approximate
Mon 05:06:00 AM 58.7644 31.2343 307° West  Level FlightAware Approximate
Mon 05:07:00 AM 58.8410 31.0341 307° West  Level FlightAware Approximate
Mon 05:08:00 AM 58.9173 30.8330 306° West  Level FlightAware Approximate
Mon 05:09:00 AM 58.9933 30.6310 306° West  Level FlightAware Approximate
Mon 05:10:00 AM 59.0689 30.4281 306° West  Level FlightAware Approximate
Mon 05:11:00 AM 59.1443 30.2243 306° West  Level FlightAware Approximate
Mon 05:12:00 AM 59.2193 30.0196 306° West  Level FlightAware Approximate
Mon 05:13:00 AM 59.2940 29.8141 305° West  Level FlightAware Approximate
Mon 05:14:00 AM 59.3684 29.6076 305° West  Level FlightAware Approximate
Mon 05:15:00 AM 59.4424 29.4002 305° West  Level FlightAware Approximate
Mon 05:16:00 AM 59.5162 29.1919 305° West  Level FlightAware Approximate
Mon 05:17:00 AM 59.5895 28.9827 305° West  Level FlightAware Approximate
Mon 05:18:00 AM 59.6626 28.7726 305° West  Level FlightAware Approximate
Mon 05:19:00 AM 59.7353 28.5616 304° West  Level FlightAware Approximate
Mon 05:20:00 AM 59.8077 28.3496 304° West  Level FlightAware Approximate
Mon 05:21:00 AM 59.8797 28.1368 304° West  Level FlightAware Approximate
Mon 05:22:00 AM 59.9514 27.9230 304° West  Level FlightAware Approximate
Mon 05:23:00 AM 60.0228 27.7083 304° West  Level FlightAware Approximate
Mon 05:24:00 AM 60.0937 27.4926 304° West  Level FlightAware Approximate
Mon 05:25:00 AM 60.1644 27.2761 303° West  Level FlightAware Approximate
Mon 05:26:00 AM 60.2347 27.0585 303° West  Level FlightAware Approximate
Mon 05:27:00 AM 60.3046 26.8401 303° West  Level FlightAware Approximate
Mon 05:28:00 AM 60.3742 26.6208 303° West  Level FlightAware Approximate
Mon 05:29:00 AM 60.4434 26.4004 303° West  Level FlightAware Approximate
Mon 05:30:00 AM 60.5122 26.1792 302° West  Level FlightAware Approximate
Mon 05:31:00 AM 60.5807 25.9570 302° West  Level FlightAware Approximate
Mon 05:32:00 AM 60.6488 25.7339 302° West  Level FlightAware Approximate
Mon 05:33:00 AM 60.7165 25.5098 302° West  Level FlightAware Approximate
Mon 05:34:00 AM 60.7839 25.2848 302° West  Level FlightAware Approximate
Mon 05:35:00 AM 60.8508 25.0589 301° West  Level FlightAware Approximate
Mon 05:36:00 AM 60.9174 24.8320 301° West  Level FlightAware Approximate
Mon 05:37:00 AM 60.9836 24.6041 301° West  Level FlightAware Approximate
Mon 05:38:00 AM 61.0495 24.3754 301° West  Level FlightAware Approximate
Mon 05:39:00 AM 61.1149 24.1456 301° West  Level FlightAware Approximate
Mon 05:40:00 AM 61.1800 23.9149 300° West  Level FlightAware Approximate
Mon 05:41:00 AM 61.2446 23.6833 300° West  Level FlightAware Approximate
Mon 05:42:00 AM 61.3089 23.4507 300° West  Level FlightAware Approximate
Mon 05:43:00 AM 61.3727 23.2171 300° West  Level FlightAware Approximate
Mon 05:44:00 AM 61.4362 22.9826 300° West  Level FlightAware Approximate
Mon 05:45:00 AM 61.4992 22.7472 299° West  Level FlightAware Approximate
Mon 05:46:00 AM 61.5619 22.5107 299° West  Level FlightAware Approximate
Mon 05:47:00 AM 61.6241 22.2734 299° West  Level FlightAware Approximate
Mon 05:48:00 AM 61.6859 22.0351 299° West  Level FlightAware Approximate
Mon 05:49:00 AM 61.7473 21.7958 299° West  Level FlightAware Approximate
Mon 05:50:00 AM 61.8083 21.5556 298° West  Level FlightAware Approximate
Mon 05:51:00 AM 61.8689 21.3144 298° West  Level FlightAware Approximate
Mon 05:52:00 AM 61.9290 21.0723 298° West  Level FlightAware Approximate
Mon 05:53:00 AM 61.9887 20.8292 298° West  Level FlightAware Approximate
Mon 05:54:00 AM 62.0480 20.5852 297° West  Level FlightAware Approximate
Mon 05:55:00 AM 62.1068 20.3402 297° West  Level FlightAware Approximate
Mon 05:56:00 AM 62.1653 20.0943 297° West  Level FlightAware Approximate
Mon 05:57:00 AM 62.2233 19.8474 297° West  Level FlightAware Approximate
Mon 05:58:00 AM 62.2808 19.5996 297° West  Level FlightAware Approximate
Mon 05:59:00 AM 62.3379 19.3508 296° West  Level FlightAware Approximate
Mon 06:00:00 AM 62.3945 19.1011 296° West  Level FlightAware Approximate
Mon 06:01:00 AM 62.4507 18.8504 296° West  Level FlightAware Approximate
Mon 06:02:00 AM 62.5065 18.5988 296° West  Level FlightAware Approximate
Mon 06:03:00 AM 62.5618 18.3463 296° West  Level FlightAware Approximate
Mon 06:04:00 AM 62.6166 18.0928 295° West  Level FlightAware Approximate
Mon 06:05:00 AM 62.6710 17.8384 295° West  Level FlightAware Approximate
Mon 06:06:00 AM 62.7249 17.5831 295° West  Level FlightAware Approximate
Mon 06:07:00 AM 62.7784 17.3268 295° West  Level FlightAware Approximate
Mon 06:08:00 AM 62.8314 17.0696 294° West  Level FlightAware Approximate
Mon 06:09:00 AM 62.8839 16.8115 294° West  Level FlightAware Approximate
Mon 06:10:00 AM 62.9359 16.5525 294° West  Level FlightAware Approximate
Mon 06:11:00 AM 62.9875 16.2925 294° West  Level FlightAware Approximate
Mon 06:12:00 AM 63.0386 16.0316 293° West  Level FlightAware Approximate
Mon 06:13:00 AM 63.0892 15.7698 293° West  Level FlightAware Approximate
Mon 06:14:00 AM 63.1393 15.5071 293° West  Level FlightAware Approximate
Mon 06:15:00 AM 63.1889 15.2436 293° West  Level FlightAware Approximate
Mon 06:16:00 AM 63.2381 14.9790 293° West  Level FlightAware Approximate
Mon 06:17:00 AM 63.2867 14.7136 292° West  Level FlightAware Approximate
Mon 06:18:00 AM 63.3349 14.4474 292° West  Level FlightAware Approximate
Mon 06:19:00 AM 63.3825 14.1802 292° West  Level FlightAware Approximate
Mon 06:20:00 AM 63.4297 13.9121 292° West  Level FlightAware Approximate
Mon 06:21:00 AM 63.4763 13.6432 291° West  Level FlightAware Approximate
Mon 06:22:00 AM 63.5225 13.3734 291° West  Level FlightAware Approximate
Mon 06:23:00 AM 63.5681 13.1027 291° West  Level FlightAware Approximate
Mon 06:24:00 AM 63.6133 12.8311 291° West  Level FlightAware Approximate
Mon 06:25:00 AM 63.6579 12.5587 290° West  Level FlightAware Approximate
Mon 06:26:00 AM 63.7020 12.2855 290° West  Level FlightAware Approximate
Mon 06:27:00 AM 63.7456 12.0114 290° West  Level FlightAware Approximate
Mon 06:28:00 AM 63.7886 11.7364 290° West  Level FlightAware Approximate
Mon 06:29:00 AM 63.8312 11.4606 289° West  Level FlightAware Approximate
Mon 06:30:00 AM 63.8731 11.1840 289° West  Level FlightAware Approximate
Mon 06:31:00 AM 63.9146 10.9066 289° West  Level FlightAware Approximate
Mon 06:32:00 AM 63.9556 10.6283 289° West  Level FlightAware Approximate
Mon 06:33:00 AM 63.9960 10.3493 288° West  Level FlightAware Approximate
Mon 06:34:00 AM 64.0358 10.0694 288° West  Level FlightAware Approximate
Mon 06:35:00 AM 64.0752 9.7887 288° West  Level FlightAware Approximate
Mon 06:36:00 AM 64.1140 9.5073 288° West  Level FlightAware Approximate
Mon 06:37:00 AM 64.1522 9.2251 287° West  Level FlightAware Approximate
Mon 06:38:00 AM 64.1899 8.9421 287° West  Level FlightAware Approximate
Mon 06:39:00 AM 64.2271 8.6583 287° West  Level FlightAware Approximate
Mon 06:40:00 AM 64.2636 8.3738 287° West  Level FlightAware Approximate
Mon 06:41:00 AM 64.2997 8.0885 286° West  Level FlightAware Approximate
Mon 06:42:00 AM 64.3352 7.8025 286° West  Level FlightAware Approximate
Mon 06:43:00 AM 64.3701 7.5157 286° West  Level FlightAware Approximate
Mon 06:44:00 AM 64.4045 7.2283 286° West  Level FlightAware Approximate
Mon 06:45:00 AM 64.4383 6.9401 285° West  Level FlightAware Approximate
Mon 06:46:00 AM 64.4715 6.6512 285° West  Level FlightAware Approximate
Mon 06:47:00 AM 64.5042 6.3616 285° West  Level FlightAware Approximate
Mon 06:48:00 AM 64.5363 6.0713 285° West  Level FlightAware Approximate
Mon 06:49:00 AM 64.5678 5.7804 284° West  Level FlightAware Approximate
Mon 06:50:00 AM 64.5988 5.4888 284° West  Level FlightAware Approximate
Mon 06:51:00 AM 64.6292 5.1965 284° West  Level FlightAware Approximate
Mon 06:52:00 AM 64.6590 4.9036 283° West  Level FlightAware Approximate
Mon 06:53:00 AM 64.6882 4.6100 283° West  Level FlightAware Approximate
Mon 06:54:00 AM 64.7168 4.3158 283° West  Level FlightAware Approximate
Mon 06:55:00 AM 64.7449 4.0210 283° West  Level FlightAware Approximate
Mon 06:56:00 AM 64.7723 3.7256 282° West  Level FlightAware Approximate
Mon 06:57:00 AM 64.7992 3.4295 282° West  Level FlightAware Approximate
Mon 06:58:00 AM 64.8255 3.1330 282° West  Level FlightAware Approximate
Mon 06:59:00 AM 64.8512 2.8358 282° West  Level FlightAware Approximate
Mon 07:00:00 AM 64.8763 2.5380 281° West  Level FlightAware Approximate
Mon 07:01:00 AM 64.9007 2.2398 281° West  Level FlightAware Approximate
Mon 07:02:00 AM 64.9247 1.9410 281° West  Level FlightAware Approximate
Mon 07:03:00 AM 64.9480 1.6416 281° West  Level FlightAware Approximate
Mon 07:04:00 AM 64.9707 1.3418 280° West  Level FlightAware Approximate
Mon 07:05:00 AM 64.9928 1.0414 280° West  Level FlightAware Approximate
Mon 07:06:00 AM 65.0143 0.7405 280° West  Level FlightAware Approximate
Mon 07:07:00 AM 65.0351 0.4392 279° West  Level FlightAware Approximate
Mon 07:08:00 AM 65.0554 0.1374 279° West  Level FlightAware Approximate
Mon 07:09:00 AM 65.0751 -0.1648 279° West  Level FlightAware Approximate
Mon 07:10:00 AM 65.0942 -0.4675 279° West  Level FlightAware Approximate
Mon 07:11:00 AM 65.1126 -0.7707 278° West  Level FlightAware Approximate
Mon 07:12:00 AM 65.1305 -1.0742 278° West  Level FlightAware Approximate
Mon 07:13:00 AM 65.1477 -1.3781 278° West  Level FlightAware Approximate
Mon 07:14:00 AM 65.1643 -1.6824 278° West  Level FlightAware Approximate
Mon 07:15:00 AM 65.1803 -1.9871 277° West  Level FlightAware Approximate
Mon 07:16:00 AM 65.1957 -2.2922 277° West  Level FlightAware Approximate
Mon 07:17:00 AM 65.2104 -2.5976 277° West  Level FlightAware Approximate
Mon 07:18:00 AM 65.2246 -2.9033 276° West  Level FlightAware Approximate
Mon 07:19:00 AM 65.2381 -3.2094 276° West  Level FlightAware Approximate
Mon 07:20:00 AM 65.2510 -3.5157 276° West  Level FlightAware Approximate
Mon 07:21:00 AM 65.2633 -3.8224 276° West  Level FlightAware Approximate
Mon 07:22:00 AM 65.2749 -4.1293 275° West  Level FlightAware Approximate
Mon 07:23:00 AM 65.2859 -4.4365 275° West  Level FlightAware Approximate
Mon 07:24:00 AM 65.2963 -4.7439 275° West  Level FlightAware Approximate
Mon 07:25:00 AM 65.3061 -5.0516 274° West  Level FlightAware Approximate
Mon 07:26:00 AM 65.3152 -5.3595 274° West  Level FlightAware Approximate
Mon 07:27:00 AM 65.3237 -5.6676 274° West  Level FlightAware Approximate
Mon 07:28:00 AM 65.3316 -5.9759 274° West  Level FlightAware Approximate
Mon 07:29:00 AM 65.3389 -6.2844 273° West  Level FlightAware Approximate
Mon 07:30:00 AM 65.3455 -6.5931 273° West  Level FlightAware Approximate
Mon 07:31:00 AM 65.3515 -6.9018 273° West  Level FlightAware Approximate
Mon 07:32:00 AM 65.3568 -7.2108 273° West  Level FlightAware Approximate
Mon 07:33:00 AM 65.3615 -7.5198 272° West  Level FlightAware Approximate
Mon 07:34:00 AM 65.3656 -7.8289 272° West  Level FlightAware Approximate
Mon 07:35:00 AM 65.3691 -8.1382 272° West  Level FlightAware Approximate
Mon 07:36:00 AM 65.3719 -8.4475 271° West  Level FlightAware Approximate
Mon 07:37:00 AM 65.3741 -8.7569 271° West  Level FlightAware Approximate
Mon 07:38:00 AM 65.3757 -9.0663 271° West  Level FlightAware Approximate
Mon 07:39:00 AM 65.3766 -9.3757 271° West  Level FlightAware Approximate
Mon 07:40:00 AM 65.3769 -9.6852 270° West  Level FlightAware Approximate
Mon 07:41:00 AM 65.3766 -9.9946 270° West  Level FlightAware Approximate
Mon 07:42:00 AM 65.3756 -10.3040 270° West  Level FlightAware Approximate
Mon 07:43:00 AM 65.3740 -10.6135 269° West  Level FlightAware Approximate
Mon 07:44:00 AM 65.3718 -10.9228 269° West  Level FlightAware Approximate
Mon 07:45:00 AM 65.3689 -11.2321 269° West  Level FlightAware Approximate
Mon 07:46:00 AM 65.3654 -11.5413 269° West  Level FlightAware Approximate
Mon 07:47:00 AM 65.3613 -11.8505 268° West  Level FlightAware Approximate
Mon 07:48:00 AM 65.3566 -12.1595 268° West  Level FlightAware Approximate
Mon 07:49:00 AM 65.3512 -12.4684 268° West  Level FlightAware Approximate
Mon 07:50:00 AM 65.3452 -12.7772 267° West  Level FlightAware Approximate
Mon 07:51:00 AM 65.3385 -13.0858 267° West  Level FlightAware Approximate
Mon 07:52:00 AM 65.3312 -13.3943 267° West  Level FlightAware Approximate
Mon 07:53:00 AM 65.3233 -13.7026 267° West  Level FlightAware Approximate
Mon 07:54:00 AM 65.3148 -14.0107 266° West  Level FlightAware Approximate
Mon 07:55:00 AM 65.3056 -14.3186 266° West  Level FlightAware Approximate
Mon 07:56:00 AM 65.2958 -14.6263 266° West  Level FlightAware Approximate
Mon 07:57:00 AM 65.2854 -14.9337 266° West  Level FlightAware Approximate
Mon 07:58:00 AM 65.2743 -15.2409 265° West  Level FlightAware Approximate
Mon 07:59:00 AM 65.2626 -15.5478 265° West  Level FlightAware Approximate
Mon 08:00:00 AM 65.2504 -15.8544 265° West  Level FlightAware Approximate
Mon 08:01:00 AM 65.2374 -16.1608 264° West  Level FlightAware Approximate
Mon 08:02:00 AM 65.2239 -16.4668 264° West  Level FlightAware Approximate
Mon 08:03:00 AM 65.2097 -16.7725 264° West  Level FlightAware Approximate
Mon 08:04:00 AM 65.1949 -17.0779 264° West  Level FlightAware Approximate
Mon 08:05:00 AM 65.1795 -17.3829 263° West  Level FlightAware Approximate
Mon 08:06:00 AM 65.1635 -17.6876 263° West  Level FlightAware Approximate
Mon 08:07:00 AM 65.1469 -17.9919 263° West  Level FlightAware Approximate
Mon 08:08:00 AM 65.1296 -18.2958 262° West  Level FlightAware Approximate
Mon 08:09:00 AM 65.1117 -18.5993 262° West  Level FlightAware Approximate
Mon 08:10:00 AM 65.0932 -18.9025 262° West  Level FlightAware Approximate
Mon 08:11:00 AM 65.0741 -19.2051 262° West  Level FlightAware Approximate
Mon 08:12:00 AM 65.0544 -19.5074 261° West  Level FlightAware Approximate
Mon 08:13:00 AM 65.0341 -19.8091 261° West  Level FlightAware Approximate
Mon 08:14:00 AM 65.0132 -20.1104 261° West  Level FlightAware Approximate
Mon 08:15:00 AM 64.9917 -20.4113 261° West  Level FlightAware Approximate
Mon 08:16:00 AM 64.9695 -20.7116 260° West  Level FlightAware Approximate
Mon 08:17:00 AM 64.9468 -21.0114 260° West  Level FlightAware Approximate
Mon 08:18:00 AM 64.9235 -21.3107 260° West  Level FlightAware Approximate
Mon 08:19:00 AM 64.8995 -21.6095 259° West  Level FlightAware Approximate
Mon 08:20:00 AM 64.8750 -21.9078 259° West  Level FlightAware Approximate
Mon 08:21:00 AM 64.8499 -22.2055 259° West  Level FlightAware Approximate
Mon 08:22:00 AM 64.8242 -22.5026 259° West  Level FlightAware Approximate
Mon 08:23:00 AM 64.7979 -22.7992 258° West  Level FlightAware Approximate
Mon 08:24:00 AM 64.7710 -23.0952 258° West  Level FlightAware Approximate
Mon 08:25:00 AM 64.7435 -23.3906 258° West  Level FlightAware Approximate
Mon 08:26:00 AM 64.7154 -23.6854 258° West  Level FlightAware Approximate
Mon 08:27:00 AM 64.6867 -23.9795 257° West  Level FlightAware Approximate
Mon 08:28:00 AM 64.6575 -24.2730 257° West  Level FlightAware Approximate
Mon 08:29:00 AM 64.6276 -24.5659 257° West  Level FlightAware Approximate
Mon 08:30:00 AM 64.5972 -24.8582 256° West  Level FlightAware Approximate
Mon 08:31:00 AM 64.5663 -25.1498 256° West  Level FlightAware Approximate
Mon 08:32:00 AM 64.5347 -25.4407 256° West  Level FlightAware Approximate
Mon 08:33:00 AM 64.5026 -25.7309 256° West  Level FlightAware Approximate
Mon 08:34:00 AM 64.4699 -26.0205 255° West  Level FlightAware Approximate
Mon 08:35:00 AM 64.4366 -26.3093 255° West  Level FlightAware Approximate
Mon 08:36:00 AM 64.4028 -26.5975 255° West  Level FlightAware Approximate
Mon 08:37:00 AM 64.3684 -26.8849 255° West  Level FlightAware Approximate
Mon 08:38:00 AM 64.3334 -27.1716 254° West  Level FlightAware Approximate
Mon 08:39:00 AM 64.2979 -27.4576 254° West  Level FlightAware Approximate
Mon 08:40:00 AM 64.2618 -27.7429 254° West  Level FlightAware Approximate
Mon 08:41:00 AM 64.2252 -28.0274 254° West  Level FlightAware Approximate
Mon 08:42:00 AM 64.1880 -28.3111 253° West  Level FlightAware Approximate
Mon 08:43:00 AM 64.1503 -28.5940 253° West  Level FlightAware Approximate
Mon 08:44:00 AM 64.1121 -28.8762 253° West  Level FlightAware Approximate
Mon 08:45:00 AM 64.0732 -29.1576 253° West  Level FlightAware Approximate
Mon 08:46:00 AM 64.0339 -29.4383 252° West  Level FlightAware Approximate
Mon 08:47:00 AM 63.9940 -29.7181 252° West  Level FlightAware Approximate
Mon 08:48:00 AM 63.9535 -29.9971 252° West  Level FlightAware Approximate
Mon 08:49:00 AM 63.9126 -30.2753 252° West  Level FlightAware Approximate
Mon 08:50:00 AM 63.8711 -30.5527 251° West  Level FlightAware Approximate
Mon 08:51:00 AM 63.8290 -30.8293 251° West  Level FlightAware Approximate
Mon 08:52:00 AM 63.7865 -31.1050 251° West  Level FlightAware Approximate
Mon 08:53:00 AM 63.7434 -31.3799 251° West  Level FlightAware Approximate
Mon 08:54:00 AM 63.6998 -31.6540 250° West  Level FlightAware Approximate
Mon 08:55:00 AM 63.6557 -31.9272 250° West  Level FlightAware Approximate
Mon 08:56:00 AM 63.6110 -32.1996 250° West  Level FlightAware Approximate
Mon 08:57:00 AM 63.5659 -32.4711 250° West  Level FlightAware Approximate
Mon 08:58:00 AM 63.5202 -32.7417 249° West  Level FlightAware Approximate
Mon 08:59:00 AM 63.4741 -33.0115 249° West  Level FlightAware Approximate
Mon 09:00:00 AM 63.4274 -33.2804 249° West  Level FlightAware Approximate
Mon 09:01:00 AM 63.3802 -33.5484 249° West  Level FlightAware Approximate
Mon 09:02:00 AM 63.3325 -33.8155 248° West  Level FlightAware Approximate
Mon 09:03:00 AM 63.2843 -34.0818 248° West  Level FlightAware Approximate
Mon 09:04:00 AM 63.2357 -34.3471 248° West  Level FlightAware Approximate
Mon 09:05:00 AM 63.1865 -34.6116 248° West  Level FlightAware Approximate
Mon 09:06:00 AM 63.1368 -34.8751 247° West  Level FlightAware Approximate
Mon 09:07:00 AM 63.0867 -35.1378 247° West  Level FlightAware Approximate
Mon 09:08:00 AM 63.0361 -35.3995 247° West  Level FlightAware Approximate
Mon 09:09:00 AM 62.9850 -35.6603 247° West  Level FlightAware Approximate
Mon 09:10:00 AM 62.9334 -35.9202 247° West  Level FlightAware Approximate
Mon 09:11:00 AM 62.8813 -36.1792 246° West  Level FlightAware Approximate
Mon 09:12:00 AM 62.8160 -36.4229 246° West  Level Estimated
Mon 09:13:00 AM 62.7631 -36.6800 246° West  Level FlightAware Approximate
Mon 09:14:00 AM 62.7098 -36.9363 246° West  Level FlightAware Approximate
Mon 09:15:00 AM 62.6561 -37.1917 245° Southwest  Level FlightAware Approximate
Mon 09:16:00 AM 62.6018 -37.4461 245° Southwest  Level FlightAware Approximate
Mon 09:17:00 AM 62.5471 -37.6996 245° Southwest  Level FlightAware Approximate
Mon 09:18:00 AM 62.4920 -37.9521 245° Southwest  Level FlightAware Approximate
Mon 09:19:00 AM 62.4363 -38.2038 245° Southwest  Level FlightAware Approximate
Mon 09:20:00 AM 62.3803 -38.4544 244° Southwest  Level FlightAware Approximate
Mon 09:21:00 AM 62.3238 -38.7042 244° Southwest  Level FlightAware Approximate
Mon 09:22:00 AM 62.2668 -38.9530 244° Southwest  Level FlightAware Approximate
Mon 09:23:00 AM 62.2094 -39.2008 244° Southwest  Level FlightAware Approximate
Mon 09:24:00 AM 62.1516 -39.4477 243° Southwest  Level FlightAware Approximate
Mon 09:25:00 AM 62.0933 -39.6937 243° Southwest  Level FlightAware Approximate
Mon 09:26:00 AM 62.0346 -39.9387 243° Southwest  Level FlightAware Approximate
Mon 09:27:00 AM 61.9754 -40.1828 243° Southwest  Level FlightAware Approximate
Mon 09:28:00 AM 61.9158 -40.4259 243° Southwest  Level FlightAware Approximate
Mon 09:29:00 AM 61.8558 -40.6681 242° Southwest  Level FlightAware Approximate
Mon 09:30:00 AM 61.7954 -40.9093 242° Southwest  Level FlightAware Approximate
Mon 09:31:00 AM 61.7346 -41.1496 242° Southwest  Level FlightAware Approximate
Mon 09:32:00 AM 61.6733 -41.3889 242° Southwest  Level FlightAware Approximate
Mon 09:33:00 AM 61.6116 -41.6273 242° Southwest  Level FlightAware Approximate
Mon 09:34:00 AM 61.5495 -41.8647 241° Southwest  Level FlightAware Approximate
Mon 09:35:00 AM 61.4870 -42.1012 241° Southwest  Level FlightAware Approximate
Mon 09:36:00 AM 61.4241 -42.3367 241° Southwest  Level FlightAware Approximate
Mon 09:37:00 AM 61.3607 -42.5713 241° Southwest  Level FlightAware Approximate
Mon 09:38:00 AM 61.2970 -42.8049 240° Southwest  Level FlightAware Approximate
Mon 09:39:00 AM 61.2329 -43.0375 240° Southwest  Level FlightAware Approximate
Mon 09:40:00 AM 61.1684 -43.2693 240° Southwest  Level FlightAware Approximate
Mon 09:41:00 AM 61.1035 -43.5000 240° Southwest  Level FlightAware Approximate
Mon 09:42:00 AM 61.0382 -43.7299 240° Southwest  Level FlightAware Approximate
Mon 09:43:00 AM 60.9725 -43.9587 239° Southwest  Level FlightAware Approximate
Mon 09:44:00 AM 60.9064 -44.1866 239° Southwest  Level FlightAware Approximate
Mon 09:45:00 AM 60.8399 -44.4136 239° Southwest  Level FlightAware Approximate
Mon 09:46:00 AM 60.7731 -44.6397 239° Southwest  Level FlightAware Approximate
Mon 09:47:00 AM 60.7058 -44.8648 239° Southwest  Level FlightAware Approximate
Mon 09:48:00 AM 60.6382 -45.0889 238° Southwest  Level FlightAware Approximate
Mon 09:49:00 AM 60.5703 -45.3121 238° Southwest  Level FlightAware Approximate
Mon 09:50:00 AM 60.5019 -45.5344 238° Southwest  Level FlightAware Approximate
Mon 09:51:00 AM 60.4332 -45.7557 238° Southwest  Level FlightAware Approximate
Mon 09:52:00 AM 60.3641 -45.9761 238° Southwest  Level FlightAware Approximate
Mon 09:52:00 AM 67.0000 -40.0000 231° Southwest 426 490 38,000  Level ETMS Enhanced Traffic Management System
Mon 09:53:00 AM 60.2947 -46.1956 238° Southwest  Level FlightAware Approximate
Mon 09:54:00 AM 60.2249 -46.4141 237° Southwest  Level FlightAware Approximate
Mon 09:55:00 AM 60.1547 -46.6317 237° Southwest  Level FlightAware Approximate
Mon 09:56:00 AM 60.0842 -46.8484 237° Southwest  Level FlightAware Approximate
Mon 09:57:00 AM 60.0028 -47.0401 230° Southwest  Level Estimated
Mon 09:58:00 AM 66.3949 -41.8450 229° Southwest 426 490 38,000  Level FlightAware Transoceanic
Mon 09:59:00 AM 66.3178 -42.0694 229° Southwest 426 490 38,000  Level FlightAware Transoceanic
Mon 10:00:00 AM 66.2403 -42.2923 229° Southwest 426 490 38,000  Level FlightAware Transoceanic
Mon 10:01:00 AM 66.1626 -42.5139 229° Southwest 426 490 38,000  Level FlightAware Transoceanic
Mon 10:02:00 AM 66.0845 -42.7341 229° Southwest 426 490 38,000  Level FlightAware Transoceanic
Mon 10:03:00 AM 66.0061 -42.9530 228° Southwest 426 490 38,000  Level FlightAware Transoceanic
Mon 10:04:00 AM 65.9274 -43.1705 228° Southwest 426 490 38,000  Level FlightAware Transoceanic
Mon 10:05:00 AM 65.8484 -43.3867 228° Southwest 426 490 38,000  Level FlightAware Transoceanic
Mon 10:06:00 AM 65.7691 -43.6016 228° Southwest 426 490 38,000  Level FlightAware Transoceanic
Mon 10:07:00 AM 65.6895 -43.8151 228° Southwest 426 490 38,000  Level FlightAware Transoceanic
Mon 10:08:00 AM 65.6095 -44.0273 228° Southwest 426 490 38,000  Level FlightAware Transoceanic
Mon 10:09:00 AM 65.5293 -44.2383 227° Southwest 426 490 38,000  Level FlightAware Transoceanic
Mon 10:10:00 AM 65.4488 -44.4479 227° Southwest 426 490 38,000  Level FlightAware Transoceanic
Mon 10:11:00 AM 65.3681 -44.6562 227° Southwest 426 490 38,000  Level FlightAware Transoceanic
Mon 10:12:00 AM 65.2870 -44.8633 227° Southwest 426 490 38,000  Level FlightAware Transoceanic
Mon 10:13:00 AM 65.2056 -45.0691 227° Southwest 426 490 38,000  Level FlightAware Transoceanic
Mon 10:14:00 AM 65.1240 -45.2736 226° Southwest 426 490 38,000  Level FlightAware Transoceanic
Mon 10:15:00 AM 65.0421 -45.4769 226° Southwest 426 490 38,000  Level FlightAware Transoceanic
Mon 10:16:00 AM 64.9599 -45.6789 226° Southwest 426 490 38,000  Level FlightAware Transoceanic
Mon 10:17:00 AM 64.8775 -45.8797 226° Southwest 426 490 38,000  Level FlightAware Transoceanic
Mon 10:18:00 AM 64.7948 -46.0792 226° Southwest 426 490 38,000  Level FlightAware Transoceanic
Mon 10:19:00 AM 64.7118 -46.2776 225° Southwest 426 490 38,000  Level FlightAware Transoceanic
Mon 10:20:00 AM 64.6285 -46.4747 225° Southwest 426 490 38,000  Level FlightAware Transoceanic
Mon 10:21:00 AM 64.5450 -46.6706 225° Southwest 426 490 38,000  Level FlightAware Transoceanic
Mon 10:22:00 AM 64.4612 -46.8653 225° Southwest 426 490 38,000  Level FlightAware Transoceanic
Mon 10:23:00 AM 64.3772 -47.0588 225° Southwest 426 490 38,000  Level FlightAware Transoceanic
Mon 10:24:00 AM 64.2929 -47.2512 225° Southwest 426 490 38,000  Level FlightAware Transoceanic
Mon 10:25:00 AM 64.2084 -47.4423 224° Southwest 426 490 38,000  Level FlightAware Transoceanic
Mon 10:26:00 AM 64.1236 -47.6324 224° Southwest 426 490 38,000  Level FlightAware Transoceanic
Mon 10:27:00 AM 64.0386 -47.8212 224° Southwest 426 490 38,000  Level FlightAware Transoceanic
Mon 10:28:00 AM 63.9533 -48.0089 224° Southwest 426 490 38,000  Level FlightAware Transoceanic
Mon 10:29:00 AM 63.8678 -48.1954 224° Southwest 426 490 38,000  Level FlightAware Transoceanic
Mon 10:30:00 AM 63.7821 -48.3809 224° Southwest 426 490 38,000  Level FlightAware Transoceanic
Mon 10:31:00 AM 63.6961 -48.5652 223° Southwest 426 490 38,000  Level FlightAware Transoceanic
Mon 10:32:00 AM 63.6099 -48.7483 223° Southwest 426 490 38,000  Level FlightAware Transoceanic
Mon 10:33:00 AM 63.5234 -48.9304 223° Southwest 426 490 38,000  Level FlightAware Transoceanic
Mon 10:34:00 AM 63.4368 -49.1114 223° Southwest 426 490 38,000  Level FlightAware Transoceanic
Mon 10:35:00 AM 63.3498 -49.2913 223° Southwest 426 490 38,000  Level FlightAware Transoceanic
Mon 10:36:00 AM 63.2627 -49.4701 223° Southwest 426 490 38,000  Level FlightAware Transoceanic
Mon 10:37:00 AM 63.1754 -49.6478 222° Southwest 426 490 38,000  Level FlightAware Transoceanic
Mon 10:38:00 AM 63.0878 -49.8244 222° Southwest 426 490 38,000  Level FlightAware Transoceanic
Mon 10:39:00 AM 62.9986 -50.0028 222° Southwest  Level FlightAware Approximate
Mon 10:40:00 AM 62.9975 -50.0063 229° Southwest  Level FlightAware Approximate
Mon 10:41:00 AM 62.9181 -50.2054 229° Southwest  Level FlightAware Approximate
Mon 10:42:00 AM 62.8384 -50.4034 229° Southwest  Level FlightAware Approximate
Mon 10:43:00 AM 62.7585 -50.6003 228° Southwest  Level FlightAware Approximate
Mon 10:44:00 AM 62.6783 -50.7962 228° Southwest  Level FlightAware Approximate
Mon 10:45:00 AM 62.5978 -50.9911 228° Southwest  Level FlightAware Approximate
Mon 10:46:00 AM 62.5170 -51.1848 228° Southwest  Level FlightAware Approximate
Mon 10:47:00 AM 62.4360 -51.3775 228° Southwest  Level FlightAware Approximate
Mon 10:48:00 AM 62.3547 -51.5692 228° Southwest  Level FlightAware Approximate
Mon 10:49:00 AM 62.2731 -51.7598 227° Southwest  Level FlightAware Approximate
Mon 10:50:00 AM 62.1913 -51.9494 227° Southwest  Level FlightAware Approximate
Mon 10:51:00 AM 62.1092 -52.1380 227° Southwest  Level FlightAware Approximate
Mon 10:52:00 AM 62.0269 -52.3256 227° Southwest  Level FlightAware Approximate
Mon 10:53:00 AM 61.9443 -52.5121 227° Southwest  Level FlightAware Approximate
Mon 10:54:00 AM 61.8615 -52.6976 227° Southwest  Level FlightAware Approximate
Mon 10:55:00 AM 61.7784 -52.8822 226° Southwest  Level FlightAware Approximate
Mon 10:56:00 AM 61.6951 -53.0657 226° Southwest  Level FlightAware Approximate
Mon 10:57:00 AM 61.6115 -53.2482 226° Southwest  Level FlightAware Approximate
Mon 10:58:00 AM 61.5277 -53.4298 226° Southwest  Level FlightAware Approximate
Mon 10:59:00 AM 61.4437 -53.6104 226° Southwest  Level FlightAware Approximate
Mon 11:00:00 AM 61.3594 -53.7900 226° Southwest  Level FlightAware Approximate
Mon 11:01:00 AM 61.2748 -53.9687 225° Southwest  Level FlightAware Approximate
Mon 11:02:00 AM 61.1901 -54.1463 225° Southwest  Level FlightAware Approximate
Mon 11:03:00 AM 61.1051 -54.3231 225° Southwest  Level FlightAware Approximate
Mon 11:04:00 AM 61.0199 -54.4988 225° Southwest  Level FlightAware Approximate
Mon 11:05:00 AM 60.9344 -54.6737 225° Southwest  Level FlightAware Approximate
Mon 11:06:00 AM 60.8488 -54.8476 225° Southwest  Level FlightAware Approximate
Mon 11:07:00 AM 60.7629 -55.0205 225° Southwest  Level FlightAware Approximate
Mon 11:08:00 AM 60.6767 -55.1926 224° Southwest  Level FlightAware Approximate
Mon 11:09:00 AM 60.5904 -55.3637 224° Southwest  Level FlightAware Approximate
Mon 11:10:00 AM 60.5038 -55.5339 224° Southwest  Level FlightAware Approximate
Mon 11:11:00 AM 60.4171 -55.7032 224° Southwest  Level FlightAware Approximate
Mon 11:12:00 AM 60.3301 -55.8716 224° Southwest  Level FlightAware Approximate
Mon 11:13:00 AM 60.2429 -56.0391 224° Southwest  Level FlightAware Approximate
Mon 11:14:00 AM 60.1555 -56.2057 224° Southwest  Level FlightAware Approximate
Mon 11:15:00 AM 60.0679 -56.3715 223° Southwest  Level FlightAware Approximate
Mon 11:16:00 AM 59.9800 -56.5363 223° Southwest  Level FlightAware Approximate
Mon 11:17:00 AM 59.8920 -56.7003 223° Southwest  Level FlightAware Approximate
Mon 11:18:00 AM 59.8038 -56.8634 223° Southwest  Level FlightAware Approximate
Mon 11:19:00 AM 59.7154 -57.0257 223° Southwest  Level FlightAware Approximate
Mon 11:20:00 AM 59.6267 -57.1871 223° Southwest  Level FlightAware Approximate
Mon 11:21:00 AM 59.5379 -57.3476 223° Southwest  Level FlightAware Approximate
Mon 11:22:00 AM 59.4489 -57.5073 222° Southwest  Level FlightAware Approximate
Mon 11:23:00 AM 59.3597 -57.6662 222° Southwest  Level FlightAware Approximate
Mon 11:23:56 AM 58.9167 -58.4500 221° Southwest 470 541 38,000  Level Gander Center
Mon 11:24:00 AM 59.2703 -57.8242 222° Southwest  Level FlightAware Approximate
Mon 11:24:56 AM 58.8333 -58.5500 212° Southwest 460 529 38,000  Level Gander Center
Mon 11:25:00 AM 59.1807 -57.9814 222° Southwest  Level FlightAware Approximate
Mon 11:25:56 AM 58.7167 -58.6833 211° Southwest 460 529 38,000  Level Gander Center
Mon 11:26:00 AM 59.0909 -58.1377 222° Southwest  Level FlightAware Approximate
Mon 11:26:56 AM 58.6000 -58.7833 204° Southwest 470 541 38,000  Level Gander Center
Mon 11:27:00 AM 59.0009 -58.2933 222° Southwest  Level FlightAware Approximate
Mon 11:27:56 AM 58.4833 -58.9167 211° Southwest 470 541 38,000  Level Gander Center
Mon 11:28:00 AM 58.9107 -58.4481 222° Southwest  Level FlightAware Approximate
Mon 11:28:56 AM 58.3667 -59.0500 211° Southwest 460 529 38,000  Level Gander Center
Mon 11:29:00 AM 58.8204 -58.6020 221° Southwest  Level FlightAware Approximate
Mon 11:29:56 AM 58.2500 -59.1667 208° Southwest 460 529 38,000  Level Gander Center
Mon 11:30:56 AM 58.1333 -59.3000 211° Southwest 460 529 38,000  Level Gander Center
Mon 11:31:56 AM 58.0500 -59.4000 212° Southwest 460 529 38,000  Level Gander Center
Mon 11:32:56 AM 57.9333 -59.5167 208° Southwest 460 529 38,000  Level Gander Center
Mon 11:33:56 AM 57.8167 -59.6167 205° Southwest 460 529 38,000  Level Gander Center
Mon 11:34:56 AM 57.7167 -59.7167 208° Southwest 460 529 38,000  Level Gander Center
Mon 11:35:56 AM 57.6000 -59.8500 211° Southwest 470 541 38,000  Level Gander Center
Mon 11:36:56 AM 57.4833 -59.9500 205° Southwest 470 541 38,000  Level Gander Center
Mon 11:37:56 AM 57.3667 -60.0833 212° Southwest 470 541 38,000  Level Gander Center
Mon 11:38:56 AM 57.2500 -60.2000 208° Southwest 470 541 38,000  Level Gander Center
Mon 11:39:56 AM 57.1333 -60.3000 205° Southwest 480 552 38,000  Level Gander Center
Mon 11:40:56 AM 57.0167 -60.4167 209° Southwest 480 552 38,000  Level Gander Center
Mon 11:41:56 AM 56.8833 -60.5500 209° Southwest 470 541 38,000  Level Gander Center
Mon 11:42:56 AM 56.7667 -60.6667 209° Southwest 470 541 38,000  Level Gander Center
Mon 11:43:56 AM 56.6500 -60.7667 205° Southwest 480 552 38,000  Level Gander Center
Mon 11:44:56 AM 56.5333 -60.8833 209° Southwest 470 541 38,000  Level Gander Center
Mon 11:45:56 AM 56.4167 -61.0167 212° Southwest 480 552 38,000  Level Gander Center
Mon 11:46:56 AM 56.3000 -61.1000 202° Southwest 480 552 38,000  Level Gander Center
Mon 11:47:56 AM 56.1833 -61.2167 209° Southwest 480 552 38,000  Level Gander Center
Mon 11:48:56 AM 56.0667 -61.3167 206° Southwest 470 541 38,000  Level Gander Center
Mon 11:49:56 AM 55.9500 -61.4333 209° Southwest 470 541 38,000  Level Gander Center
Mon 11:50:56 AM 55.8333 -61.5167 202° Southwest 460 529 38,000  Level Gander Center
Mon 11:51:56 AM 55.7167 -61.6333 209° Southwest 460 529 38,000  Level Gander Center
Mon 11:52:56 AM 55.6000 -61.7500 209° Southwest 460 529 38,000  Level Gander Center
Mon 11:53:56 AM 55.4833 -61.8500 206° Southwest 460 529 38,000  Level Gander Center
Mon 11:54:56 AM 55.3833 -61.9500 210° Southwest 460 529 38,000  Level Gander Center
Mon 11:55:56 AM 55.2667 -62.0500 206° Southwest 450 518 38,000  Level Gander Center
Mon 11:56:56 AM 55.1500 -62.1333 202° Southwest 450 518 38,000  Level Gander Center
Mon 11:57:56 AM 55.0500 -62.2500 214° Southwest 450 518 38,000  Level Gander Center
Mon 11:58:56 AM 54.9333 -62.3333 202° Southwest 460 529 38,000  Level Gander Center
Mon 11:59:56 AM 54.8167 -62.4500 210° Southwest 450 518 38,000  Level Gander Center
Mon 12:00:56 PM 54.7000 -62.5333 202° Southwest 460 529 38,000  Level Gander Center
Mon 12:01:56 PM 54.6000 -62.6333 210° Southwest 460 529 38,000  Level Gander Center
Mon 12:02:56 PM 54.4500 -62.7167 198° South 460 529 38,000  Level Gander Center
Mon 12:03:56 PM 54.3500 -62.8333 214° Southwest 460 529 38,000  Level Gander Center
Mon 12:04:56 PM 54.2333 -62.9167 203° Southwest 460 529 38,000  Level Gander Center
Mon 12:05:56 PM 54.1167 -63.0167 207° Southwest 470 541 38,000  Level Gander Center
Mon 12:06:56 PM 54.0000 -63.1000 203° Southwest 460 529 38,000  Level Gander Center
Mon 12:07:56 PM 53.8833 -63.2167 211° Southwest 460 529 38,000  Level Gander Center
Mon 12:08:56 PM 53.7833 -63.2833 202° Southwest 450 518 38,000  Level Gander Center
Mon 12:09:56 PM 53.6667 -63.4000 211° Southwest 450 518 38,000  Level Gander Center
Mon 12:10:56 PM 53.5500 -63.4833 203° Southwest 450 518 38,000  Level Gander Center
Mon 12:11:56 PM 53.4333 -63.5500 199° South 450 518 38,000  Level Gander Center
Mon 12:12:56 PM 53.3167 -63.6667 211° Southwest 460 529 38,000  Level Gander Center
Mon 12:13:56 PM 53.2000 -63.7333 199° South 460 529 38,000  Level Gander Center
Mon 12:14:56 PM 53.0833 -63.8500 211° Southwest 460 529 38,000  Level Gander Center
Mon 12:15:56 PM 52.9667 -63.9167 199° South 460 529 38,000  Level Gander Center
Mon 12:16:56 PM 52.8500 -64.0167 207° Southwest 460 529 38,000  Level Gander Center
Mon 12:17:56 PM 52.7500 -64.1000 207° Southwest 460 529 38,000  Level Gander Center
Mon 12:18:56 PM 52.6167 -64.2000 204° Southwest 460 529 38,000  Level Gander Center
Mon 12:19:56 PM 52.5000 -64.2833 204° Southwest 470 541 38,000  Level Gander Center
Mon 12:20:56 PM 52.3833 -64.3833 208° Southwest 470 541 38,000  Level Gander Center
Mon 12:21:56 PM 52.2667 -64.4833 208° Southwest 460 529 38,000  Level Gander Center
Mon 12:22:56 PM 52.1500 -64.5500 199° South 460 529 38,000  Level Gander Center
Mon 12:23:32 PM 52.0833 -64.6167 212° Southwest 460 529 38,000  Level Moncton Center
Mon 12:24:32 PM 51.9667 -64.7000 204° Southwest 460 529 38,000  Level Moncton Center
Mon 12:25:32 PM 51.8500 -64.7833 204° Southwest 470 541 38,000  Level Moncton Center
Mon 12:26:32 PM 51.7333 -64.8500 199° South 470 541 38,000  Level Moncton Center
Mon 12:27:32 PM 51.6167 -64.9667 212° Southwest 470 541 38,000  Level Moncton Center
Mon 12:28:32 PM 51.5000 -65.0500 204° Southwest 460 529 38,000  Level Moncton Center
Mon 12:29:32 PM 51.3667 -65.1167 197° South 470 541 38,000  Level Moncton Center
Mon 12:30:32 PM 51.2667 -65.2000 208° Southwest 460 529 38,000  Level Moncton Center
Mon 12:31:32 PM 51.1333 -65.3000 205° Southwest 460 529 38,000  Level Moncton Center
Mon 12:32:32 PM 51.0333 -65.3833 208° Southwest 460 529 38,000  Level Moncton Center
Mon 12:33:32 PM 50.9000 -65.4667 202° Southwest 450 518 38,000  Level Moncton Center
Mon 12:34:32 PM 50.7833 -65.5333 200° South 450 518 38,000 50 Level Moncton Center
Mon 12:35:32 PM 50.6667 -65.6167 204° Southwest 450 518 38,100  Climbing Moncton Center
Mon 12:36:32 PM 50.5500 -65.6833 200° South 450 518 38,000 -50 Descending Moncton Center
Mon 12:37:32 PM 50.4333 -65.7667 204° Southwest 460 529 38,000  Level Moncton Center
Mon 12:38:32 PM 50.3167 -65.8667 209° Southwest 460 529 38,000  Level Moncton Center
Mon 12:39:32 PM 50.2167 -65.9333 203° Southwest 450 518 38,000  Level Moncton Center
Mon 12:40:32 PM 50.0833 -66.0167 202° Southwest 460 529 38,000  Level Moncton Center
Mon 12:41:32 PM 49.9833 -66.0833 203° Southwest 460 529 38,000  Level Moncton Center
Mon 12:42:32 PM 49.8667 -66.1667 205° Southwest 460 529 38,000  Level Moncton Center
Mon 12:43:32 PM 49.7333 -66.2333 198° South 460 529 38,000  Level Moncton Center
Mon 12:44:32 PM 49.6333 -66.3167 208° Southwest 460 529 38,000  Level Moncton Center
Mon 12:45:32 PM 49.5000 -66.4000 202° Southwest 460 529 38,000  Level Moncton Center
Mon 12:46:32 PM 49.3833 -66.4833 205° Southwest 460 529 38,000  Level Moncton Center
Mon 12:47:32 PM 49.2667 -66.5500 200° South 470 541 38,000  Level Moncton Center
Mon 12:48:32 PM 49.1500 -66.6167 200° South 460 529 38,000  Level Moncton Center
Mon 12:49:32 PM 49.0333 -66.7000 205° Southwest 460 529 38,000  Level Moncton Center
Mon 12:50:32 PM 48.9167 -66.8000 209° Southwest 460 529 38,000  Level Moncton Center
Mon 12:51:32 PM 48.8000 -66.8667 201° Southwest 460 529 38,000  Level Moncton Center
Mon 12:52:32 PM 48.6833 -66.9333 201° Southwest 450 518 38,000  Level Moncton Center
Mon 12:57:57 PM 48.0452 -67.3341 201° Southwest 466 536 38,000  Level FlightAware ADS-B
Mon 12:58:29 PM 47.9846 -67.3713 202° Southwest 467 537 38,000  Level FlightAware ADS-B
Mon 12:59:19 PM 47.8824 -67.4337 202° Southwest 468 539 38,000  Level FlightAware ADS-B
Mon 12:59:49 PM 47.8226 -67.4701 202° Southwest 463 533 38,000  Level FlightAware ADS-B
Mon 01:00:19 PM 47.7658 -67.5046 202° Southwest 462 532 38,000  Level FlightAware ADS-B
Mon 01:00:55 PM 47.6925 -67.5492 202° Southwest 464 534 38,000  Level FlightAware ADS-B
Mon 01:01:34 PM 47.6146 -67.5962 202° Southwest 464 534 38,000  Level FlightAware ADS-B
Mon 01:02:05 PM 47.5637 -67.6271 202° Southwest 461 531 38,000  Level FlightAware ADS-B
Mon 01:02:38 PM 47.4879 -67.6725 202° Southwest 461 531 38,000  Level FlightAware ADS-B
Mon 01:03:08 PM 47.4296 -67.7073 202° Southwest 459 528 38,000  Level FlightAware ADS-B
Mon 01:03:55 PM 47.3370 -67.7626 202° Southwest 453 521 38,000  Level FlightAware ADS-B
Mon 01:04:26 PM 47.2779 -67.7978 202° Southwest 452 520 38,000  Level FlightAware ADS-B
Mon 01:05:11 PM 47.2050 -67.8413 202° Southwest 454 522 38,000  Level FlightAware ADS-B
Mon 01:05:42 PM 47.1302 -67.8857 202° Southwest 454 522 38,000  Level FlightAware ADS-B
Mon 01:06:12 PM 47.0720 -67.9201 202° Southwest 456 525 38,000  Level FlightAware ADS-B
Mon 01:06:50 PM 47.0104 -67.9563 202° Southwest 459 528 38,000  Level FlightAware ADS-B
Mon 01:07:22 PM 46.9549 -67.9889 202° Southwest 458 527 38,000  Level FlightAware ADS-B
Mon 01:08:05 PM 46.8507 -68.0500 202° Southwest 455 524 38,000  Level FlightAware ADS-B
Mon 01:08:42 PM 46.7774 -68.0921 201° Southwest 455 524 38,000  Level FlightAware ADS-B
Mon 01:10:12 PM 46.5954 -68.1690 196° South 455 524 38,000  Level FlightAware ADS-B
Mon 01:12:23 PM 46.3303 -68.2787 196° South 458 527 38,000  Level FlightAware ADS-B
Mon 01:13:07 PM 46.2469 -68.3131 196° South 459 528 38,000  Level FlightAware ADS-B
Mon 01:13:53 PM 46.1476 -68.3536 196° South 457 526 38,000  Level FlightAware ADS-B
Mon 01:14:39 PM 46.0549 -68.3916 196° South 459 528 38,000  Level FlightAware ADS-B
Mon 01:15:13 PM 45.9904 -68.4178 196° South 461 531 38,000  Level FlightAware ADS-B
Mon 01:15:45 PM 45.9313 -68.4417 196° South 469 540 38,000  Level FlightAware ADS-B
Mon 01:16:16 PM 45.8541 -68.4729 196° South 467 537 38,000  Level FlightAware ADS-B
Mon 01:18:01 PM 45.6386 -68.5595 196° South 472 543 38,000  Level FlightAware ADS-B
Mon 01:18:31 PM 45.5746 -68.5850 196° South 463 533 38,000  Level FlightAware ADS-B
Mon 01:19:08 PM 45.4944 -68.6171 196° South 462 532 38,000  Level FlightAware ADS-B
Mon 01:19:41 PM 45.4258 -68.6445 196° South 465 535 38,000  Level FlightAware ADS-B
Mon 01:20:11 PM 45.3660 -68.6682 196° South 468 539 38,000  Level FlightAware ADS-B
Mon 01:20:42 PM 45.2996 -68.6945 196° South 476 548 38,000  Level FlightAware ADS-B
Mon 01:21:13 PM 45.2356 -68.7198 196° South 478 550 38,000  Level FlightAware ADS-B
Mon 01:21:43 PM 45.1698 -68.7458 196° South 475 547 38,000  Level FlightAware ADS-B
Mon 01:22:13 PM 45.1067 -68.7706 196° South 479 551 38,000  Level FlightAware ADS-B
Mon 01:22:43 PM 45.0419 -68.7961 196° South 486 559 38,000  Level FlightAware ADS-B
Mon 01:23:14 PM 44.9762 -68.8217 195° South 480 552 38,000  Level FlightAware ADS-B
Mon 01:23:45 PM 44.9166 -68.8449 195° South 473 544 38,000  Level FlightAware ADS-B
Mon 01:24:24 PM 44.8320 -68.8822 197° South 469 540 38,000  Level FlightAware ADS-B
Mon 01:24:45 PM 44.7863 -68.9100 203° Southwest 465 535 38,000  Level FlightAware ADS-B
Mon 01:25:23 PM 44.7241 -68.9533 206° Southwest 463 533 38,000  Level FlightAware ADS-B
Mon 01:25:54 PM 44.6594 -68.9985 206° Southwest 465 535 38,000  Level FlightAware ADS-B
Mon 01:26:54 PM 44.5400 -69.0799 206° Southwest 468 539 38,000  Level FlightAware ADS-B
Mon 01:27:14 PM 44.4935 -69.1146 208° Southwest 461 531 38,000  Level FlightAware ADS-B (EGHI / SOU)
Mon 01:27:17 PM 44.4970 -69.1115 32° Northeast 461 531 38,000  Level FlightAware ADS-B
Mon 01:27:55 PM 44.4310 -69.1783 216° Southwest 453 521 38,000  Level FlightAware ADS-B
Mon 01:28:41 PM 44.3537 -69.2578 216° Southwest 455 524 38,000  Level FlightAware ADS-B
Mon 01:29:13 PM 44.2921 -69.3207 216° Southwest 450 518 38,000  Level FlightAware ADS-B (EGHI / SOU)
Mon 01:29:43 PM 44.2498 -69.3641 216° Southwest 448 516 38,000  Level FlightAware ADS-B
Mon 01:30:14 PM 44.1980 -69.4170 216° Southwest 444 511 38,000  Level FlightAware ADS-B
Mon 01:30:21 PM 44.1816 -69.4337 216° Southwest 451 519 38,000  Level FlightAware ADS-B (EGHI / SOU)
Mon 01:30:34 PM 44.1571 -69.4587 216° Southwest 453 521 38,000  Level FlightAware ADS-B (EGHI / SOU)
Mon 01:30:44 PM 44.1474 -69.4686 216° Southwest 446 513 38,000  Level FlightAware ADS-B
Mon 01:31:03 PM 44.1150 -69.5016 216° Southwest 447 514 38,000  Level FlightAware ADS-B
Mon 01:31:08 PM 44.1060 -69.5106 216° Southwest 447 514 38,000  Level FlightAware ADS-B
Mon 01:31:44 PM 44.0452 -69.5721 216° Southwest 444 511 38,000  Level FlightAware ADS-B
Mon 01:32:24 PM 43.9794 -69.6388 216° Southwest 445 512 38,000  Level FlightAware ADS-B
Mon 01:32:54 PM 43.9272 -69.6913 216° Southwest 445 512 38,000  Level FlightAware ADS-B
Mon 01:33:24 PM 43.8780 -69.7407 216° Southwest 440 506 38,000 100 Level FlightAware ADS-B
Mon 01:33:54 PM 43.8290 -69.7896 216° Southwest 423 487 38,100  Climbing FlightAware ADS-B
Mon 01:34:24 PM 43.7807 -69.8379 216° Southwest 417 480 38,000 -100 Descending FlightAware ADS-B
Mon 01:34:54 PM 43.7345 -69.8841 216° Southwest 417 480 38,000  Level FlightAware ADS-B
Mon 01:35:24 PM 43.6855 -69.9328 216° Southwest 420 483 38,000  Level FlightAware ADS-B
Mon 01:36:04 PM 43.6218 -69.9962 216° Southwest 433 498 38,000  Level FlightAware ADS-B
Mon 01:36:42 PM 43.5596 -70.0579 216° Southwest 424 488 38,000  Level FlightAware ADS-B
Mon 01:37:14 PM 43.5078 -70.1091 216° Southwest 422 486 38,000  Level FlightAware ADS-B
Mon 01:37:54 PM 43.4432 -70.1729 216° Southwest 438 504 38,000  Level FlightAware ADS-B
Mon 01:38:24 PM 43.3943 -70.2209 215° Southwest 436 502 38,000  Level FlightAware ADS-B
Mon 01:38:54 PM 43.3444 -70.2700 216° Southwest 440 506 38,000  Level FlightAware ADS-B
Mon 01:39:24 PM 43.2953 -70.3181 215° Southwest 438 504 38,000  Level FlightAware ADS-B
Mon 01:39:54 PM 43.2428 -70.3692 215° Southwest 440 506 38,000  Level FlightAware ADS-B
Mon 01:40:25 PM 43.1912 -70.4194 215° Southwest 435 501 38,000  Level FlightAware ADS-B (KBKF)
Mon 01:40:29 PM 43.1860 -70.4245 216° Southwest 435 501 38,000  Level FlightAware ADS-B
Mon 01:40:32 PM 43.1894 -70.4212 35° Northeast 435 501 38,000  Level FlightAware ADS-B
Mon 01:41:04 PM 43.1292 -70.4800 215° Southwest 435 501 38,000  Level FlightAware ADS-B
Mon 01:41:34 PM 43.0796 -70.5281 215° Southwest 433 498 38,000  Level FlightAware ADS-B
Mon 01:42:04 PM 43.0300 -70.5759 215° Southwest 430 495 38,000  Level FlightAware ADS-B
Mon 01:42:14 PM 43.0553 -70.5516 35° Northeast 430 495 38,000  Level FlightAware ADS-B (KBKF)
Mon 01:42:32 PM 42.9852 -70.6192 215° Southwest 430 495 38,000  Level FlightAware ADS-B (KBKF)
Mon 01:42:50 PM 42.9571 -70.6464 215° Southwest 426 490 38,000  Level FlightAware ADS-B
Mon 01:42:59 PM 42.9472 -70.6560 215° Southwest 426 490 38,000  Level FlightAware ADS-B
Mon 01:43:34 PM 42.8925 -70.7089 215° Southwest 424 488 38,000  Level FlightAware ADS-B
Mon 01:43:54 PM 42.8537 -70.7462 215° Southwest 416 479 38,000  Level FlightAware ADS-B
Mon 01:44:02 PM 42.8421 -70.7573 215° Southwest 423 487 38,000  Level FlightAware ADS-B
Mon 01:44:14 PM 42.8228 -70.7759 215° Southwest 415 478 38,000  Level FlightAware ADS-B
Mon 01:44:24 PM 42.8065 -70.7915 215° Southwest 415 478 38,000  Level FlightAware ADS-B
Mon 01:44:33 PM 42.7913 -70.8061 215° Southwest 421 484 38,000  Level FlightAware ADS-B
Mon 01:44:43 PM 42.7773 -70.8195 215° Southwest 420 483 38,000  Level FlightAware ADS-B
Mon 01:45:13 PM 42.7288 -70.8658 215° Southwest 418 481 38,000  Level FlightAware ADS-B
Mon 01:45:34 PM 42.6954 -70.8980 215° Southwest 407 468 38,000  Level FlightAware ADS-B
Mon 01:46:05 PM 42.6526 -70.9443 219° Southwest 411 473 38,000  Level FlightAware ADS-B
Mon 01:46:39 PM 42.5992 -71.0036 219° Southwest 413 475 38,000  Level FlightAware ADS-B
Mon 01:47:14 PM 42.5473 -71.0596 218° Southwest 413 475 38,000  Level FlightAware ADS-B
Mon 01:47:45 PM 42.5163 -71.0927 218° Southwest 414 476 38,000  Level FlightAware ADS-B
Mon 01:48:15 PM 42.4560 -71.1570 218° Southwest 414 476 38,000  Level FlightAware ADS-B
Mon 01:48:52 PM 42.4016 -71.2149 218° Southwest 412 474 38,000  Level FlightAware ADS-B
Mon 01:49:24 PM 42.3570 -71.2624 218° Southwest 414 476 38,000  Level FlightAware ADS-B
Mon 01:49:54 PM 42.3073 -71.3150 218° Southwest 415 478 38,000  Level FlightAware ADS-B
Mon 01:50:24 PM 42.2622 -71.3627 218° Southwest 411 473 38,000  Level FlightAware ADS-B
Mon 01:50:54 PM 42.2179 -71.4094 218° Southwest 410 472 38,000  Level FlightAware ADS-B
Mon 01:51:24 PM 42.1724 -71.4575 218° Southwest 410 472 38,000  Level FlightAware ADS-B
Mon 01:51:57 PM 42.1290 -71.5032 218° Southwest 413 475 38,000  Level FlightAware ADS-B (KSNC)
Mon 01:52:27 PM 42.0797 -71.5551 218° Southwest 413 475 38,000  Level FlightAware ADS-B (KSNC)
Mon 01:52:44 PM 42.0530 -71.5831 218° Southwest 415 478 38,000  Level FlightAware ADS-B
Mon 01:52:54 PM 42.0376 -71.5992 218° Southwest 408 470 38,000  Level FlightAware ADS-B
Mon 01:53:15 PM 42.0058 -71.6323 218° Southwest 417 480 38,000  Level FlightAware ADS-B
Mon 01:53:25 PM 41.9906 -71.6482 218° Southwest 416 479 38,000  Level FlightAware ADS-B
Mon 01:53:32 PM 41.9815 -71.6576 218° Southwest 416 479 38,000  Level FlightAware ADS-B
Mon 01:53:45 PM 41.9605 -71.6796 218° Southwest 416 479 38,000  Level FlightAware ADS-B
Mon 01:53:54 PM 41.9472 -71.6935 218° Southwest 416 479 38,000  Level FlightAware ADS-B
Mon 01:54:13 PM 41.9174 -71.7246 218° Southwest 411 473 38,000  Level FlightAware ADS-B
Mon 01:54:34 PM 41.8848 -71.7586 218° Southwest 418 481 38,000  Level FlightAware ADS-B
Mon 01:54:41 PM 41.8750 -71.7687 218° Southwest 413 475 38,000  Level FlightAware ADS-B
Mon 01:55:04 PM 41.8405 -71.8047 218° Southwest 414 476 38,000  Level FlightAware ADS-B
Mon 01:55:20 PM 41.8152 -71.8310 218° Southwest 415 478 38,000  Level FlightAware ADS-B
Mon 01:55:34 PM 41.7945 -71.8525 218° Southwest 416 479 38,000  Level FlightAware ADS-B
Mon 01:55:47 PM 41.7741 -71.8737 218° Southwest 417 480 38,000  Level FlightAware ADS-B
Mon 01:56:20 PM 41.7239 -71.9256 218° Southwest 423 487 38,000  Level FlightAware ADS-B (KOWD)
Mon 01:56:57 PM 41.6650 -71.9866 218° Southwest 426 490 38,000  Level FlightAware ADS-B (KSNC)
Mon 01:57:30 PM 41.6213 -72.0316 218° Southwest 427 491 38,000  Level FlightAware ADS-B (KOWD)
Mon 01:58:04 PM 41.5599 -72.0947 218° Southwest 422 486 38,000  Level FlightAware ADS-B
Mon 01:58:36 PM 41.5109 -72.1450 218° Southwest 421 484 38,000  Level FlightAware ADS-B
Mon 01:59:06 PM 41.4658 -72.1912 218° Southwest 421 484 38,000  Level FlightAware ADS-B (KOWD)
Mon 01:59:41 PM 41.4118 -72.2464 217° Southwest 421 484 38,000  Level FlightAware ADS-B (KBKF)
Mon 02:00:13 PM 41.3620 -72.2973 217° Southwest 422 486 38,000  Level FlightAware ADS-B (KSNC)
Mon 02:00:23 PM 41.3471 -72.3124 217° Southwest 423 487 38,000  Level FlightAware ADS-B (KBKF)
Mon 02:00:56 PM 41.2978 -72.3626 217° Southwest 424 488 38,000  Level FlightAware ADS-B
Mon 02:01:30 PM 41.2418 -72.4194 217° Southwest 425 489 38,000  Level FlightAware ADS-B (KSNC)
Mon 02:02:02 PM 41.1919 -72.4700 217° Southwest 424 488 38,000  Level FlightAware ADS-B (KSNC)
Mon 02:02:35 PM 41.1394 -72.5232 217° Southwest 425 489 38,000  Level FlightAware ADS-B
Mon 02:03:06 PM 41.0919 -72.5710 217° Southwest 426 490 38,000  Level FlightAware ADS-B
Mon 02:03:39 PM 41.0519 -72.6113 217° Southwest 425 489 38,000  Level FlightAware ADS-B (KSNC)
Mon 02:04:10 PM 40.9924 -72.6712 217° Southwest 425 489 38,000  Level FlightAware ADS-B (KSNC)
Mon 02:04:48 PM 40.9333 -72.7306 217° Southwest 426 490 38,000  Level FlightAware ADS-B (KSNC)
Mon 02:05:18 PM 40.8891 -72.7748 217° Southwest 425 489 38,000  Level FlightAware ADS-B (KSNC)
Mon 02:05:51 PM 40.8381 -72.8258 217° Southwest 423 487 38,000  Level FlightAware ADS-B
Mon 02:06:21 PM 40.7876 -72.8761 217° Southwest 420 483 38,000  Level FlightAware ADS-B (KSNC)
Mon 02:06:52 PM 40.7405 -72.9231 217° Southwest 420 483 38,000  Level FlightAware ADS-B (KSNC)
Mon 02:07:30 PM 40.6842 -72.9790 217° Southwest 421 484 38,000  Level FlightAware ADS-B (KSNC)
Mon 02:08:00 PM 40.6338 -73.0289 217° Southwest 422 486 38,000  Level FlightAware ADS-B (KSNC)
Mon 02:08:33 PM 40.5827 -73.0797 217° Southwest 423 487 38,000  Level FlightAware ADS-B (KSNC)
Mon 02:09:08 PM 40.5827 -73.0797 217° Southwest 424 488 38,000  Level FlightAware ADS-B (KSNC)
Mon 02:09:56 PM 40.4554 -73.2051 217° Southwest 426 490 38,000  Level FlightAware ADS-B (KSNC)
Mon 02:10:26 PM 40.4080 -73.2517 217° Southwest 426 490 38,000  Level FlightAware ADS-B (KSNC)
Mon 02:11:06 PM 40.3417 -73.3169 217° Southwest 427 491 38,000  Level FlightAware ADS-B (KSNC)
Mon 02:11:37 PM 40.2938 -73.3636 217° Southwest 426 490 38,000  Level FlightAware ADS-B (KSNC)
Mon 02:12:19 PM 40.2274 -73.4284 217° Southwest 424 488 38,000  Level FlightAware ADS-B (KWWD)
Mon 02:12:55 PM 40.1739 -73.4805 217° Southwest 423 487 38,000  Level FlightAware ADS-B (KSNC)
Mon 02:13:30 PM 40.1162 -73.5367 217° Southwest 422 486 38,000  Level FlightAware ADS-B (KWWD)
Mon 02:14:08 PM 40.0567 -73.5944 217° Southwest 423 487 38,000  Level FlightAware ADS-B (KSNC)
Mon 02:14:39 PM 40.0102 -73.6393 216° Southwest 422 486 38,000  Level FlightAware ADS-B (KSNC)
Mon 02:15:09 PM 39.9598 -73.6880 217° Southwest 421 484 38,000  Level FlightAware ADS-B (KWWD)
Mon 02:15:40 PM 39.9130 -73.7333 217° Southwest 419 482 38,000  Level FlightAware ADS-B (KWWD)
Mon 02:16:10 PM 39.8656 -73.7790 217° Southwest 420 483 38,000  Level FlightAware ADS-B (KWWD)
Mon 02:16:50 PM 39.8044 -73.8378 216° Southwest 420 483 38,000  Level FlightAware ADS-B (KWWD)
Mon 02:17:20 PM 39.7565 -73.8839 216° Southwest 420 483 38,000  Level FlightAware ADS-B (KWWD)
Mon 02:18:00 PM 39.6932 -73.9444 216° Southwest 424 488 38,000  Level FlightAware ADS-B (KWWD)
Mon 02:18:40 PM 39.6314 -74.0034 216° Southwest 420 483 38,000  Level FlightAware ADS-B (KWWD)
Mon 02:18:54 PM 39.6088 -74.0250 216° Southwest 423 487 38,000  Level FlightAware ADS-B (KSNC)
Mon 02:19:27 PM 39.5567 -74.0745 216° Southwest 425 489 38,000  Level FlightAware ADS-B (KWWD)
Mon 02:19:57 PM 39.5081 -74.1207 216° Southwest 424 488 38,000  Level FlightAware ADS-B (KWWD)
Mon 02:20:30 PM 39.4563 -74.1699 216° Southwest 422 486 38,000  Level FlightAware ADS-B (KWWD)
Mon 02:21:10 PM 39.3950 -74.2279 216° Southwest 420 483 38,000  Level FlightAware ADS-B (KWWD)
Mon 02:21:51 PM 39.3306 -74.2888 216° Southwest 419 482 38,000  Level FlightAware ADS-B (KWWD)
Mon 02:22:25 PM 39.2770 -74.3392 216° Southwest 419 482 38,000  Level FlightAware ADS-B (KWWD)
Mon 02:22:56 PM 39.2279 -74.3854 216° Southwest 416 479 38,000  Level FlightAware ADS-B (KWWD)
Mon 02:23:27 PM 39.1818 -74.4287 216° Southwest 415 478 38,000  Level FlightAware ADS-B (KWWD)
Mon 02:23:59 PM 39.1326 -74.4749 216° Southwest 407 468 38,000  Level FlightAware ADS-B (KWWD)
Mon 02:25:12 PM 39.0181 -74.5820 216° Southwest 404 465 38,000  Level FlightAware ADS-B (KWWD)
Mon 02:25:56 PM 38.9506 -74.6449 216° Southwest 407 468 38,000  Level FlightAware ADS-B (KWWD)
Mon 02:26:32 PM 38.8945 -74.6971 216° Southwest 414 476 38,000  Level FlightAware ADS-B (KWWD)
Mon 02:27:08 PM 38.8396 -74.7479 216° Southwest 405 466 38,000  Level FlightAware ADS-B (KWWD)
Mon 02:27:41 PM 38.7883 -74.7953 216° Southwest 402 463 38,000  Level FlightAware ADS-B (KWWD)
Mon 02:28:17 PM 38.7327 -74.8469 216° Southwest 402 463 38,000  Level FlightAware ADS-B (KWWD)
Mon 02:29:11 PM 38.6518 -74.9213 216° Southwest 397 457 38,000  Level FlightAware ADS-B (KWWD)
Mon 02:29:47 PM 38.5962 -74.9725 216° Southwest 402 463 38,000  Level FlightAware ADS-B (KWWD)
Mon 02:30:17 PM 38.5517 -75.0135 216° Southwest 398 458 38,000  Level FlightAware ADS-B (KWWD)
Mon 02:30:53 PM 38.4977 -75.0631 216° Southwest 398 458 38,000  Level FlightAware ADS-B (KWWD)
Mon 02:31:33 PM 38.4370 -75.1185 216° Southwest 401 461 38,000  Level FlightAware ADS-B (KWWD)
Mon 02:32:12 PM 38.3774 -75.1729 216° Southwest 396 456 38,000  Level FlightAware ADS-B (KWWD)
Mon 02:32:43 PM 38.3309 -75.2153 216° Southwest 397 457 38,000  Level FlightAware ADS-B (KWWD)
Mon 02:33:21 PM 38.2730 -75.2680 216° Southwest 397 457 38,000  Level FlightAware ADS-B (KWWD)
Mon 02:33:52 PM 38.2257 -75.3110 216° Southwest 398 458 38,000  Level FlightAware ADS-B (KWWD)
Mon 02:34:23 PM 38.1804 -75.3520 215° Southwest 399 459 38,000  Level FlightAware ADS-B (KWWD)
Mon 02:35:04 PM 38.1160 -75.4098 215° Southwest 404 465 38,000  Level FlightAware ADS-B (KWWD)
Mon 02:35:34 PM 38.0662 -75.4443 209° Southwest 418 481 38,000  Level FlightAware ADS-B (KWWD)
Mon 02:36:14 PM 37.9968 -75.4919 208° Southwest 419 482 38,000  Level FlightAware ADS-B (KWWD)
Mon 02:36:50 PM 37.9356 -75.5342 209° Southwest 422 486 38,000  Level FlightAware ADS-B (KWWD)
Mon 02:37:22 PM 37.8798 -75.5725 209° Southwest 424 488 38,000  Level FlightAware ADS-B (EGAA / BFS)
Mon 02:38:03 PM 37.8094 -75.6208 208° Southwest 426 490 38,000  Level FlightAware ADS-B (KWWD)
Mon 02:38:41 PM 37.7431 -75.6662 208° Southwest 426 490 38,000  Level FlightAware ADS-B (KWWD)
Mon 02:39:12 PM 37.6895 -75.7028 208° Southwest 419 482 38,000  Level FlightAware ADS-B (KWWD)
Mon 02:39:45 PM 37.6334 -75.7411 208° Southwest 426 490 38,000  Level FlightAware ADS-B (KWWD)
Mon 02:40:23 PM 37.5665 -75.7867 208° Southwest 420 483 38,000  Level FlightAware ADS-B (KWWD)
Mon 02:41:04 PM 37.4952 -75.8353 208° Southwest 421 484 38,000  Level FlightAware ADS-B (KWWD)
Mon 02:41:34 PM 37.4435 -75.8704 208° Southwest 422 486 38,000  Level FlightAware ADS-B (KWWD)
Mon 02:42:14 PM 37.3739 -75.9176 208° Southwest 423 487 38,000  Level FlightAware ADS-B (KWWD)
Mon 02:42:51 PM 37.3090 -75.9615 208° Southwest 419 482 38,000  Level FlightAware ADS-B (KWWD)
Mon 02:43:38 PM 37.2296 -76.0149 208° Southwest 422 486 38,000  Level FlightAware ADS-B (KWWD)
Mon 02:44:44 PM 37.1139 -76.0928 208° Southwest 420 483 38,000  Level FlightAware ADS-B (KWWD)
Mon 02:45:24 PM 37.0448 -76.1391 208° Southwest 421 484 38,000  Level FlightAware ADS-B (KWWD)
Mon 02:46:44 PM 36.9040 -76.2332 208° Southwest 422 486 38,000  Level FlightAware ADS-B (KWWD)
Mon 02:47:52 PM 36.7873 -76.3110 208° Southwest 436 502 38,000  Level FlightAware ADS-B (KWWD)
Mon 02:48:26 PM 36.7251 -76.3523 208° Southwest 438 504 38,000  Level FlightAware ADS-B (KWWD)
Mon 02:49:22 PM 36.6436 -76.4100 208° Southwest 433 498 38,000  Level Washington Center
Mon 02:50:23 PM 36.5367 -76.4786 207° Southwest 439 505 38,000  Level Washington Center
Mon 02:51:21 PM 36.4297 -76.5472 207° Southwest 439 505 38,000  Level Washington Center
Mon 02:52:22 PM 36.3247 -76.6181 209° Southwest 434 499 38,000  Level Washington Center
Mon 02:53:22 PM 36.2053 -76.6936 207° Southwest 439 505 38,000  Level Washington Center
Mon 02:54:23 PM 36.1025 -76.7617 208° Southwest 439 505 38,000  Level Washington Center
Mon 02:55:21 PM 35.9972 -76.8294 208° Southwest 439 505 38,000  Level Washington Center
Mon 02:56:22 PM 35.8903 -76.8969 207° Southwest 439 505 38,000  Level Washington Center
Mon 02:57:23 PM 35.7853 -76.9619 207° Southwest 439 505 38,000  Level Washington Center
Mon 02:58:23 PM 35.6800 -77.0317 208° Southwest 439 505 38,000  Level Washington Center
Mon 02:59:21 PM 35.5875 -77.0964 210° Southwest 430 495 38,000  Level Washington Center
Mon 03:00:21 PM 35.4803 -77.1633 207° Southwest 430 495 38,000  Level Washington Center
Mon 03:01:22 PM 35.3728 -77.2300 207° Southwest 435 501 38,000  Level Washington Center
Mon 03:02:22 PM 35.2675 -77.2992 208° Southwest 440 506 38,000  Level Washington Center
Mon 03:03:22 PM 35.1622 -77.3653 207° Southwest 435 501 38,000  Level Washington Center
Mon 03:04:23 PM 35.0569 -77.4317 207° Southwest 435 501 38,000  Level Washington Center
Mon 03:05:24 PM 34.9494 -77.4975 207° Southwest 435 501 38,000  Level Washington Center
Mon 03:06:21 PM 34.8356 -77.5708 208° Southwest 435 501 38,000  Level Washington Center
Mon 03:07:21 PM 34.7406 -77.6342 209° Southwest 435 501 38,000  Level Washington Center
Mon 03:08:22 PM 34.6375 -77.6972 207° Southwest 435 501 38,000  Level Washington Center
Mon 03:09:23 PM 34.5319 -77.7653 208° Southwest 435 501 38,000  Level Washington Center
Mon 03:11:05 PM 34.3294 -77.8817 205° Southwest 430 495 38,000  Level Jacksonville Center
Mon 03:12:05 PM 34.2119 -77.9183 194° South 430 495 38,000  Level Jacksonville Center
Mon 03:13:05 PM 34.0881 -77.9506 192° South 447 514 38,000  Level Jacksonville Center
Mon 03:14:05 PM 33.9664 -77.9850 193° South 447 514 38,000  Level Jacksonville Center
Mon 03:15:05 PM 33.8467 -78.0192 193° South 445 512 38,000  Level Jacksonville Center
Mon 03:16:05 PM 33.7269 -78.0533 193° South 448 516 38,000  Level Jacksonville Center
Mon 03:17:05 PM 33.6156 -78.0894 195° South 448 516 38,000  Level Jacksonville Center
Mon 03:18:05 PM 33.4958 -78.1208 192° South 448 516 38,000  Level Jacksonville Center
Mon 03:19:05 PM 33.3739 -78.1547 193° South 448 516 38,000  Level Jacksonville Center
Mon 03:20:05 PM 33.2522 -78.1908 194° South 448 516 38,000  Level Jacksonville Center
Mon 03:21:05 PM 33.1283 -78.2247 193° South 448 516 38,000  Level Jacksonville Center
Mon 03:22:05 PM 33.0086 -78.2606 194° South 448 516 38,000  Level Jacksonville Center
Mon 03:23:05 PM 32.8844 -78.2942 193° South 448 516 38,000  Level Jacksonville Center
Mon 03:24:05 PM 32.7606 -78.3278 193° South 448 516 38,000  Level Jacksonville Center
Mon 03:25:05 PM 32.6386 -78.3636 194° South 448 516 38,000  Level Jacksonville Center
Mon 03:26:05 PM 32.5147 -78.3967 193° South 454 522 38,000  Level Jacksonville Center
Mon 03:27:05 PM 32.3947 -78.4272 192° South 454 522 38,000  Level Jacksonville Center
Mon 03:28:05 PM 32.2772 -78.4700 197° South 444 511 38,000  Level Jacksonville Center
Mon 03:29:05 PM 32.1553 -78.5053 194° South 444 511 38,000  Level Jacksonville Center
Mon 03:30:05 PM 32.0353 -78.5381 193° South 451 519 38,000  Level Jacksonville Center
Mon 03:31:05 PM 31.9114 -78.5756 194° South 451 519 38,000  Level Jacksonville Center
Mon 03:32:05 PM 31.7894 -78.6106 194° South 451 519 38,000  Level Jacksonville Center
Mon 03:33:05 PM 31.6694 -78.6456 194° South 451 519 38,000  Level Jacksonville Center
Mon 03:34:05 PM 31.5494 -78.6778 193° South 451 519 38,000  Level Jacksonville Center
Mon 03:35:05 PM 31.4253 -78.7125 193° South 451 519 38,000  Level Jacksonville Center
Mon 03:36:05 PM 31.3056 -78.7494 195° South 451 519 38,000  Level Jacksonville Center
Mon 03:37:05 PM 31.1794 -78.7842 193° South 451 519 38,000  Level Jacksonville Center
Mon 03:38:05 PM 31.0572 -78.8161 193° South 451 519 38,000  Level Jacksonville Center
Mon 03:39:05 PM 30.9331 -78.8531 194° South 456 525 38,000  Level Jacksonville Center
Mon 03:40:05 PM 30.8069 -78.8875 193° South 461 531 38,000  Level Jacksonville Center
Mon 03:41:05 PM 30.6828 -78.9217 193° South 461 531 38,000  Level Jacksonville Center
Mon 03:41:39 PM 30.6172 -78.9422 195° South 470 541 38,000  Level Miami Center
Mon 03:42:39 PM 30.4981 -78.9736 193° South 470 541 38,000  Level Miami Center
Mon 03:43:39 PM 30.3703 -79.0167 196° South 464 534 38,000  Level Miami Center
Mon 03:44:39 PM 30.2550 -79.0697 202° Southwest 459 528 38,000  Level Miami Center
Mon 03:45:39 PM 30.1372 -79.1200 200° South 459 528 38,000  Level Miami Center
Mon 03:46:39 PM 30.0178 -79.1703 200° South 459 528 38,000  Level Miami Center
Mon 03:47:39 PM 29.9061 -79.2325 206° Southwest 454 522 38,000  Level Miami Center
Mon 03:48:39 PM 29.7825 -79.2775 198° South 459 528 38,000  Level Miami Center
Mon 03:49:39 PM 29.6689 -79.3300 202° Southwest 453 521 38,000  Level Miami Center
Mon 03:50:39 PM 29.5511 -79.3844 202° Southwest 453 521 38,000  Level Miami Center
Mon 03:51:39 PM 29.4314 -79.4294 198° South 453 521 38,000  Level Miami Center
Mon 03:52:39 PM 29.3181 -79.4789 201° Southwest 453 521 38,000  Level Miami Center
Mon 03:53:39 PM 29.1961 -79.5236 198° South 458 527 38,000  Level Miami Center
Mon 03:54:39 PM 29.0764 -79.5683 198° South 458 527 38,000  Level Miami Center
Mon 03:55:39 PM 28.9544 -79.6103 197° South 458 527 38,000  Level Miami Center
Mon 03:56:39 PM 28.8389 -79.6547 199° South 452 520 38,000  Level Miami Center
Mon 03:57:39 PM 28.7172 -79.6967 197° South 447 514 38,000  Level Miami Center
Mon 03:58:39 PM 28.5994 -79.7386 197° South 447 514 38,000  Level Miami Center
Mon 03:59:39 PM 28.4775 -79.7828 198° South 447 514 38,000  Level Miami Center
Mon 04:00:39 PM 28.3575 -79.8269 198° South 447 514 38,000  Level Miami Center
Mon 04:01:39 PM 28.2358 -79.8683 197° South 447 514 38,000  Level Miami Center
Mon 04:02:39 PM 28.1158 -79.9122 198° South 447 514 38,000  Level Miami Center
Mon 04:03:39 PM 27.9833 -79.9606 198° South 452 520 38,000  Level Miami Center
Mon 04:04:39 PM 27.8867 -79.9931 197° South 457 526 38,000  Level Miami Center
Mon 04:05:39 PM 27.7372 -80.0475 198° South 463 533 38,000  Level Miami Center
Mon 04:06:39 PM 27.6150 -80.0886 197° South 463 533 38,000  Level Miami Center
Mon 04:07:39 PM 27.4911 -80.1319 197° South 463 533 38,000  Level Miami Center
Mon 04:08:39 PM 27.3711 -80.1753 198° South 463 533 38,000  Level Miami Center
Mon 04:09:39 PM 27.2489 -80.2208 198° South 463 533 38,000  Level Miami Center
Mon 04:10:39 PM 27.1267 -80.2642 198° South 468 539 38,000  Level Miami Center
Mon 04:11:39 PM 27.0025 -80.3047 196° South 468 539 38,000  Level Miami Center
Mon 04:12:39 PM 26.8803 -80.3478 197° South 468 539 38,000  Level Miami Center
Mon 04:13:39 PM 26.7708 -80.3886 198° South 468 539 38,000  Level Miami Center
Mon 04:14:39 PM 26.6403 -80.4358 198° South 463 533 38,000  Level Miami Center
Mon 04:15:39 PM 26.5286 -80.4742 197° South 463 533 38,000  Level Miami Center
Mon 04:16:39 PM 26.3936 -80.5211 197° South 468 539 38,000  Level Miami Center
Mon 04:17:39 PM 26.2842 -80.5594 197° South 468 539 38,000  Level Miami Center
Mon 04:18:39 PM 26.1642 -80.5997 197° South 462 532 38,000  Level Miami Center
Mon 04:19:39 PM 26.0292 -80.6464 197° South 462 532 38,000  Level Miami Center
Mon 04:20:39 PM 25.9111 -80.6911 199° South 467 537 38,000  Level Miami Center
Mon 04:21:39 PM 25.7908 -80.7333 198° South 462 532 38,000  Level Miami Center
Mon 04:22:39 PM 25.6686 -80.7778 198° South 462 532 38,000  Level Miami Center
Mon 04:23:39 PM 25.5444 -80.8153 195° South 467 537 38,000  Level Miami Center
Mon 04:24:39 PM 25.4242 -80.8572 197° South 467 537 38,000  Level Miami Center
Mon 04:25:39 PM 25.3042 -80.8969 197° South 467 537 38,000  Level Miami Center
Mon 04:26:39 PM 25.1797 -80.9389 197° South 467 537 38,000  Level Miami Center
Mon 04:27:39 PM 25.0897 -81.0206 219° Southwest 435 501 38,000  Level Miami Center
Mon 04:28:39 PM 25.0200 -81.1192 232° Southwest 404 465 38,000  Level Miami Center
Mon 04:29:39 PM 24.9461 -81.2197 231° Southwest 422 486 38,000  Level Miami Center
Mon 04:30:39 PM 24.8742 -81.3200 232° Southwest 427 491 38,000 -150 Level Miami Center
Mon 04:31:39 PM 24.8000 -81.4250 232° Southwest 432 497 37,700 -650 Descending Miami Center
Mon 04:32:39 PM 24.7278 -81.5253 232° Southwest 432 497 36,700 -850 Descending Miami Center
Mon 04:33:39 PM 24.6711 -81.6031 231° Southwest 425 489 36,000 -1,000 Descending Miami Center
Mon 04:34:39 PM 24.5814 -81.7297 232° Southwest 436 502 34,700 -1,050 Descending Miami Center
Mon 04:35:39 PM 24.5094 -81.8250 230° Southwest 443 510 33,900 -950 Descending Miami Center
Mon 04:36:39 PM 24.4328 -81.9292 231° Southwest 432 497 32,800 -1,150 Descending Miami Center
Mon 04:37:39 PM 24.3625 -82.0267 232° Southwest 427 491 31,600 -1,650 Descending Miami Center
Mon 04:38:39 PM 24.2903 -82.1261 231° Southwest 427 491 29,500 -1,950 Descending Miami Center
Mon 04:39:39 PM 24.2178 -82.2256 231° Southwest 427 491 27,700 -1,850 Descending Miami Center
Mon 04:40:39 PM 24.1472 -82.3250 232° Southwest 427 491 25,800 -1,900 Descending Miami Center
Mon 04:41:39 PM 24.0731 -82.4150 228° Southwest 421 484 23,900 -1,800 Descending Miami Center
Mon 04:42:39 PM 23.9950 -82.4886 221° Southwest 420 483 22,200 -1,700 Descending Miami Center
Mon 04:44:00 PM 23.8604 -82.4967 173° South  Level FlightAware Approximate
Mon 04:51:00 PM 23.0405 -82.4000 180° South  Level FlightAware Approximate
Mon 04:52:00 PM 22.9891 -82.4091 180° South  Level Estimated
Mon 04:53:00 PM 22.9891 -82.4091 180° South  Level Estimated
Mon 04:54:00 PM 22.9891 -82.4091 180° South  Level Estimated
Mon 04:55:00 PM 22.9891 -82.4091 180° South  Level Estimated
Mon 04:56:00 PM 22.9891 -82.4091 180° South  Level Estimated
Mon 04:57:00 PM 22.9891 -82.4091 180° South  Level Estimated
Mon 04:58:00 PM 22.9891 -82.4091 180° South  Level Estimated
Mon 04:59:00 PM 22.9891 -82.4091 180° South  Level Estimated
Mon 05:00:00 PM 22.9891 -82.4091 180° South  Level Estimated
Mon 05:01:00 PM 22.9891 -82.4091 180° South  Level Estimated
Mon 05:02:00 PM 22.9891 -82.4091 180° South  Level Estimated
Mon 05:03:00 PM 22.9891 -82.4091 180° South  Level Estimated
Mon 05:04:00 PM 22.9891 -82.4091 180° South  Level Estimated
Mon 05:05:00 PM 22.9891 -82.4091 180° South  Level Estimated
Mon 05:06:00 PM 22.9891 -82.4091 180° South  Level Estimated
Mon 05:07:00 PM 22.9891 -82.4091 180° South  Level Estimated
Mon 05:08:00 PM 22.9891 -82.4091 180° South  Level Estimated
Mon 05:09:00 PM 22.9891 -82.4091 180° South  Level Estimated
Mon 05:10:00 PM 22.9891 -82.4091 180° South  Level Estimated
Mon 05:11:00 PM 22.9891 -82.4091 180° South  Level Estimated
Mon 05:12:00 PM 22.9891 -82.4091 180° South  Level Estimated
Mon 05:13:00 PM 22.9891 -82.4091 180° South  Level Estimated

Login

Don't have an account? Register now (free) for customized features, flight alerts, and more!